createdAt,value
2017-07-18T00:01:33.067Z,4.70
2017-07-18T00:03:59.451Z,4.30
2017-07-18T00:06:25.844Z,4.53
2017-07-18T00:08:52.219Z,5.00
2017-07-18T00:11:18.627Z,4.63
2017-07-18T00:13:45.036Z,4.30
2017-07-18T00:16:11.408Z,4.30
2017-07-18T00:18:37.809Z,4.40
2017-07-18T00:21:04.175Z,4.10
2017-07-18T00:23:30.587Z,3.90
2017-07-18T00:25:56.958Z,4.27
2017-07-18T00:28:23.336Z,4.70
2017-07-18T00:30:49.827Z,4.43
2017-07-18T00:33:16.215Z,4.33
2017-07-18T00:35:42.598Z,4.33
2017-07-18T00:38:09.001Z,4.40
2017-07-18T00:40:35.382Z,4.40
2017-07-18T00:43:02.523Z,3.97
2017-07-18T00:45:29.669Z,4.20
2017-07-18T00:47:56.799Z,4.23
2017-07-18T00:50:23.160Z,4.33
2017-07-18T00:52:49.579Z,4.87
2017-07-18T00:55:15.967Z,4.77
2017-07-18T00:57:42.360Z,4.53
2017-07-18T01:00:09.524Z,5.00
2017-07-18T01:02:35.929Z,4.10
2017-07-18T01:05:03.077Z,4.30
2017-07-18T01:07:30.240Z,5.10
2017-07-18T01:09:57.343Z,4.70
2017-07-18T01:12:23.731Z,4.23
2017-07-18T01:14:50.128Z,4.80
2017-07-18T01:17:16.507Z,5.33
2017-07-18T01:19:42.891Z,4.20
2017-07-18T01:22:09.303Z,4.47
2017-07-18T01:24:35.692Z,4.80
2017-07-18T01:27:02.099Z,4.33
2017-07-18T01:29:28.456Z,4.47
2017-07-18T01:31:54.848Z,4.63
2017-07-18T01:34:21.249Z,4.87
2017-07-18T01:36:47.684Z,4.33
2017-07-18T01:39:14.098Z,4.60
2017-07-18T01:41:40.554Z,5.30
2017-07-18T01:44:06.972Z,4.60
2017-07-18T01:46:33.370Z,4.53
2017-07-18T01:49:00.519Z,4.47
2017-07-18T01:51:26.943Z,4.97
2017-07-18T01:53:54.182Z,4.60
2017-07-18T01:56:20.567Z,4.70
2017-07-18T01:58:47.007Z,5.23
2017-07-18T02:01:13.459Z,4.70
2017-07-18T02:03:39.914Z,5.23
2017-07-18T02:06:06.315Z,5.00
2017-07-18T02:08:32.739Z,4.50
2017-07-18T02:10:59.135Z,5.07
2017-07-18T02:13:26.272Z,4.27
2017-07-18T02:15:52.684Z,5.07
2017-07-18T02:18:20.675Z,5.07
2017-07-18T02:20:47.081Z,4.73
2017-07-18T02:23:13.475Z,5.23
2017-07-18T02:25:39.844Z,5.03
2017-07-18T02:28:06.252Z,5.30
2017-07-18T02:30:32.630Z,4.60
2017-07-18T02:32:59.752Z,5.43
2017-07-18T02:35:26.248Z,5.10
2017-07-18T02:37:52.611Z,5.13
2017-07-18T02:40:19.008Z,4.57
2017-07-18T02:42:45.405Z,5.40
2017-07-18T02:45:11.819Z,5.30
2017-07-18T02:47:38.219Z,5.60
2017-07-18T02:50:04.599Z,4.93
2017-07-18T02:52:31.785Z,5.10
2017-07-18T02:54:58.187Z,5.27
2017-07-18T02:57:24.567Z,5.77
2017-07-18T02:59:50.975Z,4.90
2017-07-18T03:02:18.120Z,5.57
2017-07-18T03:04:45.281Z,5.03
2017-07-18T03:07:11.687Z,5.37
2017-07-18T03:09:38.083Z,4.87
2017-07-18T03:12:04.600Z,5.03
2017-07-18T03:14:30.967Z,4.97
2017-07-18T03:16:57.336Z,4.93
2017-07-18T03:19:24.482Z,5.20
2017-07-18T03:21:51.591Z,5.87
2017-07-18T03:24:41.008Z,5.40
2017-07-18T03:27:08.134Z,4.87
2017-07-18T03:29:34.554Z,5.43
2017-07-18T03:32:01.740Z,5.47
2017-07-18T03:34:28.909Z,4.70
2017-07-18T03:36:55.300Z,4.40
2017-07-18T03:39:21.811Z,5.10
2017-07-18T03:41:48.182Z,5.07
2017-07-18T03:44:15.297Z,5.20
2017-07-18T03:46:41.688Z,5.07
2017-07-18T03:49:08.077Z,5.60
2017-07-18T03:51:34.444Z,5.80
2017-07-18T03:54:00.869Z,5.57
2017-07-18T03:56:27.989Z,5.10
2017-07-18T03:58:54.363Z,5.40
2017-07-18T04:01:20.788Z,5.13
2017-07-18T04:03:47.192Z,5.97
2017-07-18T04:06:13.579Z,5.53
2017-07-18T04:08:39.952Z,4.97
2017-07-18T04:11:06.714Z,5.27
2017-07-18T04:13:33.840Z,6.10
2017-07-18T04:16:00.228Z,4.77
2017-07-18T04:18:26.636Z,6.13
2017-07-18T04:20:53.033Z,5.33
2017-07-18T04:23:19.527Z,6.50
2017-07-18T04:25:45.891Z,5.20
2017-07-18T04:28:12.252Z,5.80
2017-07-18T04:30:39.392Z,5.10
2017-07-18T04:33:05.800Z,5.60
2017-07-18T04:35:32.236Z,5.70
2017-07-18T04:37:58.616Z,5.30
2017-07-18T04:40:25.048Z,5.77
2017-07-18T04:42:51.484Z,5.90
2017-07-18T04:45:17.889Z,6.23
2017-07-18T04:47:45.027Z,6.10
2017-07-18T04:50:11.460Z,6.10
2017-07-18T04:52:37.872Z,6.03
2017-07-18T04:55:04.286Z,6.67
2017-07-18T04:57:30.653Z,6.50
2017-07-18T04:59:57.050Z,7.17
2017-07-18T05:02:23.511Z,6.40
2017-07-18T05:04:50.016Z,7.77
2017-07-18T05:07:16.406Z,7.47
2017-07-18T05:09:43.562Z,6.17
2017-07-18T05:12:11.636Z,6.03
2017-07-18T05:14:38.365Z,6.70
2017-07-18T05:17:04.902Z,6.90
2017-07-18T05:19:31.451Z,6.50
2017-07-18T05:21:57.872Z,6.30
2017-07-18T05:24:39.980Z,6.30
2017-07-18T05:27:07.096Z,5.90
2017-07-18T05:29:33.483Z,6.50
2017-07-18T05:31:59.952Z,5.73
2017-07-18T05:34:26.352Z,5.87
2017-07-18T05:36:52.702Z,6.10
2017-07-18T05:39:19.128Z,5.90
2017-07-18T05:41:45.534Z,6.40
2017-07-18T05:44:11.948Z,6.00
2017-07-18T05:46:38.314Z,6.00
2017-07-18T05:49:04.748Z,5.93
2017-07-18T05:51:31.119Z,5.33
2017-07-18T05:53:57.488Z,6.70
2017-07-18T05:56:23.900Z,5.80
2017-07-18T05:58:50.271Z,6.97
2017-07-18T06:01:16.699Z,6.40
2017-07-18T06:03:43.128Z,5.63
2017-07-18T06:06:09.510Z,5.80
2017-07-18T06:08:35.959Z,6.13
2017-07-18T06:11:03.104Z,6.43
2017-07-18T06:13:29.499Z,6.40
2017-07-18T06:15:55.907Z,6.13
2017-07-18T06:18:22.281Z,6.63
2017-07-18T06:20:48.683Z,6.27
2017-07-18T06:23:15.066Z,5.83
2017-07-18T06:25:41.431Z,6.17
2017-07-18T06:28:07.836Z,6.30
2017-07-18T06:30:34.230Z,6.10
2017-07-18T06:33:00.603Z,5.70
2017-07-18T06:35:27.787Z,7.03
2017-07-18T06:37:54.180Z,6.40
2017-07-18T06:40:20.556Z,5.40
2017-07-18T06:42:46.956Z,5.40
2017-07-18T06:45:14.100Z,6.93
2017-07-18T06:47:41.218Z,5.93
2017-07-18T06:50:07.612Z,5.77
2017-07-18T06:52:34.004Z,5.17
2017-07-18T06:55:00.393Z,5.37
2017-07-18T06:57:26.799Z,5.47
2017-07-18T06:59:53.196Z,5.33
2017-07-18T07:02:19.599Z,4.80
2017-07-18T07:04:46.020Z,5.23
2017-07-18T07:07:12.392Z,4.67
2017-07-18T07:09:38.766Z,5.30
2017-07-18T07:12:05.172Z,5.00
2017-07-18T07:14:32.315Z,4.47
2017-07-18T07:16:58.703Z,5.07
2017-07-18T07:19:25.091Z,5.03
2017-07-18T07:21:52.254Z,5.37
2017-07-18T07:24:18.648Z,4.30
2017-07-18T07:26:45.012Z,5.07
2017-07-18T07:29:12.147Z,5.40
2017-07-18T07:31:38.528Z,5.53
2017-07-18T07:34:04.920Z,4.63
2017-07-18T07:36:31.324Z,5.30
2017-07-18T07:38:57.734Z,5.03
2017-07-18T07:41:24.107Z,5.23
2017-07-18T07:43:51.239Z,5.37
2017-07-18T07:46:17.659Z,4.97
2017-07-18T07:48:44.059Z,5.23
2017-07-18T07:51:10.460Z,5.60
2017-07-18T07:53:37.647Z,5.20
2017-07-18T07:56:04.031Z,5.10
2017-07-18T07:58:30.406Z,5.67
2017-07-18T08:00:56.812Z,5.00
2017-07-18T08:03:23.968Z,5.10
2017-07-18T08:05:51.082Z,4.53
2017-07-18T08:08:17.486Z,4.80
2017-07-18T08:10:44.004Z,4.47
2017-07-18T08:13:10.438Z,4.60
2017-07-18T08:15:36.818Z,3.90
2017-07-18T08:18:03.240Z,3.60
2017-07-18T08:20:29.600Z,3.80
2017-07-18T08:22:56.719Z,3.33
2017-07-18T08:25:23.110Z,4.10
2017-07-18T08:27:49.472Z,4.10
2017-07-18T08:30:15.899Z,4.33
2017-07-18T08:32:42.275Z,4.50
2017-07-18T08:35:08.699Z,4.43
2017-07-18T08:37:35.072Z,4.27
2017-07-18T08:40:01.455Z,4.83
2017-07-18T08:42:27.874Z,4.33
2017-07-18T08:44:54.254Z,4.60
2017-07-18T08:47:20.614Z,4.80
2017-07-18T08:49:47.003Z,3.90
2017-07-18T08:52:14.123Z,3.90
2017-07-18T08:54:40.559Z,4.97
2017-07-18T08:57:07.698Z,4.00
2017-07-18T08:59:34.134Z,4.57
2017-07-18T09:02:00.509Z,3.80
2017-07-18T09:04:26.887Z,4.50
2017-07-18T09:06:53.315Z,4.23
2017-07-18T09:09:19.712Z,3.73
2017-07-18T09:11:46.095Z,4.00
2017-07-18T09:14:12.520Z,4.63
2017-07-18T09:16:38.915Z,4.73
2017-07-18T09:19:05.319Z,3.97
2017-07-18T09:21:32.494Z,3.80
2017-07-18T09:23:58.903Z,3.90
2017-07-18T09:26:26.028Z,4.13
2017-07-18T09:28:52.644Z,3.80
2017-07-18T09:31:19.845Z,4.27
2017-07-18T09:33:46.999Z,3.70
2017-07-18T09:36:13.420Z,4.50
2017-07-18T09:38:39.806Z,3.70
2017-07-18T09:41:06.208Z,4.00
2017-07-18T09:43:32.610Z,4.13
2017-07-18T09:45:59.012Z,4.70
2017-07-18T09:48:25.404Z,4.40
2017-07-18T09:50:51.821Z,4.80
2017-07-18T09:53:18.967Z,4.93
2017-07-18T09:55:45.364Z,3.57
2017-07-18T09:58:11.776Z,3.90
2017-07-18T10:00:38.202Z,3.60
2017-07-18T10:03:04.650Z,4.23
2017-07-18T10:05:31.033Z,3.67
2017-07-18T10:07:58.175Z,3.97
2017-07-18T10:10:24.580Z,3.73
2017-07-18T10:12:50.959Z,4.23
2017-07-18T10:15:17.359Z,4.30
2017-07-18T10:17:43.742Z,4.60
2017-07-18T10:20:10.176Z,4.90
2017-07-18T10:22:36.576Z,4.80
2017-07-18T10:25:03.715Z,4.87
2017-07-18T10:27:30.091Z,4.03
2017-07-18T10:29:56.503Z,4.40
2017-07-18T10:32:22.883Z,4.70
2017-07-18T10:34:49.263Z,4.30
2017-07-18T10:37:15.659Z,4.57
2017-07-18T10:39:42.042Z,4.57
2017-07-18T10:42:08.465Z,3.70
2017-07-18T10:44:34.884Z,3.67
2017-07-18T10:47:02.040Z,4.97
2017-07-18T10:49:29.159Z,4.77
2017-07-18T10:51:55.540Z,4.30
2017-07-18T10:54:21.961Z,4.80
2017-07-18T10:56:48.360Z,4.50
2017-07-18T10:59:14.736Z,3.77
2017-07-18T11:01:41.111Z,4.73
2017-07-18T11:04:07.532Z,4.30
2017-07-18T11:06:33.932Z,3.90
2017-07-18T11:09:00.331Z,4.37
2017-07-18T11:11:26.741Z,4.00
2017-07-18T11:13:53.144Z,3.10
2017-07-18T11:16:19.523Z,3.90
2017-07-18T11:18:46.036Z,3.77
2017-07-18T11:21:12.395Z,4.10
2017-07-18T11:23:39.538Z,4.10
2017-07-18T11:26:05.943Z,3.93
2017-07-18T11:28:32.338Z,3.90
2017-07-18T11:30:59.200Z,4.30
2017-07-18T11:33:25.706Z,4.10
2017-07-18T11:35:52.334Z,4.30
2017-07-18T11:38:18.716Z,3.10
2017-07-18T11:40:45.091Z,4.00
2017-07-18T11:43:11.595Z,4.17
2017-07-18T11:45:38.007Z,3.80
2017-07-18T11:48:04.384Z,3.57
2017-07-18T11:50:30.775Z,4.63
2017-07-18T11:52:57.152Z,4.50
2017-07-18T11:55:24.292Z,4.13
2017-07-18T11:57:50.687Z,4.43
2017-07-18T12:00:17.095Z,4.40
2017-07-18T12:02:43.479Z,4.27
2017-07-18T12:05:09.884Z,4.97
2017-07-18T12:07:36.596Z,4.67
2017-07-18T12:10:03.111Z,4.47
2017-07-18T12:12:29.635Z,4.00
2017-07-18T12:14:56.204Z,3.50
2017-07-18T12:17:22.619Z,3.97
2017-07-18T12:19:49.892Z,3.70
2017-07-18T12:22:16.342Z,4.00
2017-07-18T12:24:42.756Z,5.37
2017-07-18T12:27:09.279Z,4.20
2017-07-18T12:29:36.404Z,3.80
2017-07-18T12:32:02.784Z,4.07
2017-07-18T12:34:29.348Z,3.53
2017-07-18T12:36:55.740Z,4.20
2017-07-18T12:39:22.156Z,4.10
2017-07-18T12:41:49.308Z,4.20
2017-07-18T12:44:15.691Z,3.80
2017-07-18T12:46:42.098Z,3.90
2017-07-18T12:49:08.504Z,3.67
2017-07-18T12:51:35.607Z,4.00
2017-07-18T12:54:02.058Z,3.70
2017-07-18T12:56:28.443Z,4.50
2017-07-18T12:58:54.823Z,3.80
2017-07-18T13:01:21.236Z,3.77
2017-07-18T13:03:47.614Z,4.70
2017-07-18T13:06:14.723Z,3.43
2017-07-18T13:08:41.135Z,3.73
2017-07-18T13:11:07.512Z,3.23
2017-07-18T13:13:34.663Z,4.20
2017-07-18T13:16:01.096Z,3.80
2017-07-18T13:18:28.208Z,3.50
2017-07-18T13:20:54.715Z,3.93
2017-07-18T13:23:21.107Z,4.10
2017-07-18T13:25:47.484Z,4.13
2017-07-18T13:28:13.906Z,4.83
2017-07-18T13:30:40.304Z,4.40
2017-07-18T13:33:07.421Z,3.40
2017-07-18T13:35:33.802Z,3.87
2017-07-18T13:38:00.207Z,4.40
2017-07-18T13:40:26.596Z,4.03
2017-07-18T13:42:52.978Z,4.03
2017-07-18T13:45:19.388Z,3.80
2017-07-18T13:47:45.767Z,4.50
2017-07-18T13:50:12.172Z,4.27
2017-07-18T13:52:38.543Z,3.80
2017-07-18T13:55:04.955Z,4.13
2017-07-18T13:57:32.072Z,4.30
2017-07-18T13:59:58.455Z,4.80
2017-07-18T14:02:24.884Z,4.00
2017-07-18T14:04:51.264Z,3.60
2017-07-18T14:07:17.640Z,4.10
2017-07-18T14:09:44.060Z,4.57
2017-07-18T14:12:11.195Z,4.63
2017-07-18T14:14:37.594Z,4.67
2017-07-18T14:17:03.975Z,4.63
2017-07-18T14:19:31.215Z,4.40
2017-07-18T14:21:57.591Z,4.27
2017-07-18T14:24:23.967Z,4.30
2017-07-18T14:26:50.363Z,4.60
2017-07-18T14:29:16.740Z,4.20
2017-07-18T14:31:43.152Z,4.50
2017-07-18T14:34:09.560Z,4.60
2017-07-18T14:36:35.935Z,4.10
2017-07-18T14:39:02.414Z,5.00
2017-07-18T14:41:28.828Z,4.77
2017-07-18T14:43:55.235Z,4.20
2017-07-18T14:46:21.747Z,4.80
2017-07-18T14:48:48.119Z,4.60
2017-07-18T14:51:15.479Z,4.77
2017-07-18T14:53:41.860Z,5.37
2017-07-18T14:56:08.251Z,4.60
2017-07-18T14:58:34.638Z,4.43
2017-07-18T15:01:01.011Z,4.30
2017-07-18T15:03:27.443Z,4.33
2017-07-18T15:05:53.825Z,5.43
2017-07-18T15:08:20.234Z,3.90
2017-07-18T15:10:46.624Z,4.40
2017-07-18T15:13:13.131Z,4.37
2017-07-18T15:15:39.511Z,5.30
2017-07-18T15:18:05.922Z,4.97
2017-07-18T15:20:33.062Z,5.07
2017-07-18T15:22:59.463Z,4.50
2017-07-18T15:25:25.867Z,4.07
2017-07-18T15:27:52.255Z,4.60
2017-07-18T15:30:18.724Z,4.90
2017-07-18T15:32:45.198Z,4.30
2017-07-18T15:35:11.596Z,4.03
2017-07-18T15:37:38.160Z,4.20
2017-07-18T15:40:04.647Z,5.13
2017-07-18T15:42:31.852Z,4.60
2017-07-18T15:44:58.327Z,4.20
2017-07-18T15:47:24.792Z,3.72
2017-07-18T15:49:51.207Z,5.17
2017-07-18T15:52:17.664Z,4.63
2017-07-18T15:54:44.096Z,5.37
2017-07-18T15:57:10.462Z,4.80
2017-07-18T15:59:37.142Z,4.50
2017-07-18T16:02:03.558Z,4.80
2017-07-18T16:04:30.028Z,5.90
2017-07-18T16:06:56.463Z,4.50
2017-07-18T16:09:22.902Z,5.07
2017-07-18T16:11:49.316Z,5.00
2017-07-18T16:14:15.812Z,4.90
2017-07-18T16:16:42.219Z,4.30
2017-07-18T16:19:08.908Z,4.97
2017-07-18T16:21:36.117Z,5.10
2017-07-18T16:24:03.363Z,4.43
2017-07-18T16:26:29.782Z,4.33
2017-07-18T16:28:56.158Z,4.57
2017-07-18T16:31:22.637Z,5.30
2017-07-18T16:33:49.111Z,5.30
2017-07-18T16:36:15.599Z,4.63
2017-07-18T16:38:42.091Z,4.70
2017-07-18T16:41:08.657Z,5.33
2017-07-18T16:43:35.121Z,5.20
2017-07-18T16:46:01.643Z,5.27
2017-07-18T16:48:28.071Z,4.37
2017-07-18T16:50:54.459Z,6.10
2017-07-18T16:53:20.986Z,4.90
2017-07-18T16:55:54.389Z,5.80
2017-07-18T16:58:20.778Z,4.50
2017-07-18T17:00:47.196Z,5.50
2017-07-18T17:03:13.668Z,5.27
2017-07-18T17:05:40.064Z,4.60
2017-07-18T17:08:06.684Z,4.83
2017-07-18T17:10:33.805Z,5.20
2017-07-18T17:13:00.359Z,4.93
2017-07-18T17:15:26.759Z,5.30
2017-07-18T17:17:53.182Z,4.43
2017-07-18T17:20:19.576Z,4.60
2017-07-18T17:22:46.018Z,4.63
2017-07-18T17:25:12.824Z,4.50
2017-07-18T17:27:40.005Z,4.43
2017-07-18T17:30:06.693Z,4.23
2017-07-18T17:32:33.208Z,5.07
2017-07-18T17:34:59.620Z,5.20
2017-07-18T17:37:26.034Z,5.00
2017-07-18T17:39:52.427Z,4.80
2017-07-18T17:42:18.846Z,4.17
2017-07-18T17:44:45.234Z,5.00
2017-07-18T17:47:11.616Z,4.57
2017-07-18T17:49:38.018Z,5.60
2017-07-18T17:52:04.435Z,4.80
2017-07-18T17:54:30.919Z,5.00
2017-07-18T17:56:57.299Z,4.83
2017-07-18T17:59:23.668Z,4.63
2017-07-18T18:01:50.087Z,4.80
2017-07-18T18:04:16.511Z,4.27
2017-07-18T18:06:42.943Z,5.67
2017-07-18T18:09:09.367Z,5.10
2017-07-18T18:11:35.755Z,5.20
2017-07-18T18:14:02.242Z,5.10
2017-07-18T18:16:28.671Z,5.00
2017-07-18T18:18:55.092Z,4.63
2017-07-18T18:21:21.495Z,5.43
2017-07-18T18:23:47.952Z,5.47
2017-07-18T18:26:14.464Z,4.90
2017-07-18T18:28:40.959Z,4.93
2017-07-18T18:31:07.377Z,4.73
2017-07-18T18:33:33.855Z,4.53
2017-07-18T18:36:00.255Z,4.90
2017-07-18T18:38:26.635Z,4.37
2017-07-18T18:40:53.035Z,4.30
2017-07-18T18:43:19.439Z,4.57
2017-07-18T18:45:45.864Z,4.37
2017-07-18T18:48:12.248Z,5.30
2017-07-18T18:50:38.627Z,4.57
2017-07-18T18:53:05.203Z,5.40
2017-07-18T18:55:31.708Z,5.20
2017-07-18T18:57:58.166Z,4.93
2017-07-18T19:00:24.644Z,5.10
2017-07-18T19:02:51.136Z,5.10
2017-07-18T19:05:17.599Z,5.53
2017-07-18T19:07:44.016Z,4.77
2017-07-18T19:10:11.262Z,4.83
2017-07-18T19:12:37.736Z,4.87
2017-07-18T19:15:04.272Z,5.20
2017-07-18T19:17:30.684Z,5.80
2017-07-18T19:19:57.851Z,5.10
2017-07-18T19:22:24.279Z,5.63
2017-07-18T19:24:51.404Z,4.70
2017-07-18T19:27:17.844Z,6.27
2017-07-18T19:29:44.352Z,6.00
2017-07-18T19:32:10.780Z,5.73
2017-07-18T19:34:37.172Z,5.77
2017-07-18T19:37:03.592Z,5.23
2017-07-18T19:39:30.704Z,4.90
2017-07-18T19:41:57.142Z,5.30
2017-07-18T19:44:23.555Z,5.53
2017-07-18T19:46:49.991Z,6.37
2017-07-18T19:49:17.147Z,5.70
2017-07-18T19:51:43.563Z,6.73
2017-07-18T19:54:09.987Z,5.67
2017-07-18T19:56:36.517Z,7.90
2017-07-18T19:59:02.991Z,6.20
2017-07-18T20:01:29.371Z,5.43
2017-07-18T20:03:55.999Z,6.13
2017-07-18T20:06:23.219Z,5.40
2017-07-18T20:08:49.877Z,5.73
2017-07-18T20:11:16.319Z,5.40
2017-07-18T20:13:43.524Z,5.20
2017-07-18T20:16:09.959Z,5.37
2017-07-18T20:18:36.352Z,5.47
2017-07-18T20:21:03.141Z,6.10
2017-07-18T20:23:29.947Z,6.27
2017-07-18T20:25:56.359Z,5.53
2017-07-18T20:28:22.784Z,5.60
2017-07-18T20:30:49.219Z,5.97
2017-07-18T20:33:16.396Z,5.53
2017-07-18T20:35:42.832Z,5.30
2017-07-18T20:38:09.219Z,5.50
2017-07-18T20:40:35.598Z,5.03
2017-07-18T20:43:02.307Z,4.90
2017-07-18T20:45:29.045Z,5.43
2017-07-18T20:47:55.462Z,5.47
2017-07-18T20:50:21.824Z,4.83
2017-07-18T20:52:48.307Z,5.57
2017-07-18T20:55:14.696Z,5.60
2017-07-18T20:57:41.058Z,8.27
2017-07-18T21:00:07.952Z,8.83
2017-07-18T21:02:34.423Z,7.87
2017-07-18T21:05:00.804Z,8.30
2017-07-18T21:07:27.483Z,5.83
2017-07-18T21:09:53.991Z,4.70
2017-07-18T21:12:21.175Z,5.40
2017-07-18T21:14:47.595Z,4.90
2017-07-18T21:17:14.224Z,4.67
2017-07-18T21:19:40.724Z,4.93
2017-07-18T21:22:08.103Z,5.63
2017-07-18T21:24:34.723Z,5.50
2017-07-18T21:27:01.287Z,5.33
2017-07-18T21:29:27.827Z,5.27
2017-07-18T21:31:54.247Z,5.73
2017-07-18T21:34:20.707Z,5.60
2017-07-18T21:36:47.112Z,5.80
2017-07-18T21:39:13.682Z,5.10
2017-07-18T21:41:40.208Z,5.60
2017-07-18T21:44:06.702Z,5.00
2017-07-18T21:46:33.831Z,5.17
2017-07-18T21:49:00.203Z,6.23
2017-07-18T21:51:26.611Z,5.37
2017-07-18T21:53:53.122Z,5.50
2017-07-18T21:56:19.494Z,5.53
2017-07-18T21:58:46.622Z,6.30
2017-07-18T22:01:13.039Z,5.63
2017-07-18T22:03:39.463Z,5.37
2017-07-18T22:06:05.835Z,5.00
2017-07-18T22:08:32.282Z,4.87
2017-07-18T22:10:58.656Z,5.03
2017-07-18T22:13:25.055Z,5.30
2017-07-18T22:15:51.474Z,4.80
2017-07-18T22:18:18.608Z,5.07
2017-07-18T22:20:44.999Z,5.93
2017-07-18T22:23:11.623Z,6.00
2017-07-18T22:25:38.154Z,5.53
2017-07-18T22:28:04.531Z,6.20
2017-07-18T22:30:31.058Z,4.90
2017-07-18T22:32:57.559Z,4.60
2017-07-18T22:35:24.311Z,5.87
2017-07-18T22:37:50.786Z,5.30
2017-07-18T22:40:17.199Z,5.40
2017-07-18T22:42:43.591Z,5.17
2017-07-18T22:45:09.988Z,5.30
2017-07-18T22:47:37.371Z,5.00
2017-07-18T22:50:03.828Z,5.33
2017-07-18T22:52:30.423Z,6.07
2017-07-18T22:54:57.556Z,6.00
2017-07-18T22:57:23.980Z,4.90
2017-07-18T22:59:50.443Z,5.10
2017-07-18T23:02:17.604Z,6.03
2017-07-18T23:04:44.007Z,5.40
2017-07-18T23:07:10.654Z,5.40
2017-07-18T23:09:37.208Z,5.40
2017-07-18T23:12:03.599Z,5.30
2017-07-18T23:14:29.975Z,5.40
2017-07-18T23:16:56.404Z,5.30
2017-07-18T23:19:22.780Z,5.10
2017-07-18T23:21:49.198Z,6.00
2017-07-18T23:24:15.611Z,5.10
2017-07-18T23:26:42.103Z,6.00
2017-07-18T23:29:08.486Z,5.70
2017-07-18T23:31:34.871Z,5.30
2017-07-18T23:34:01.367Z,4.93
2017-07-18T23:36:27.782Z,5.60
2017-07-18T23:38:54.428Z,5.47
2017-07-18T23:41:21.235Z,5.37
2017-07-18T23:43:47.711Z,5.70
2017-07-18T23:46:14.099Z,5.67
2017-07-18T23:48:41.271Z,6.10
2017-07-18T23:51:07.652Z,5.33
2017-07-18T23:53:34.152Z,5.60
2017-07-18T23:56:00.576Z,5.63
2017-07-18T23:58:26.943Z,5.10
